Time;durP1;ratioP1;P1;durP2;ratioP2;P2;SDS_P1;SDS_P2;PMS_P1;PMS_P2;Temp;Humidity;BMP_temperature;BMP_pressure;BME280_temperature;BME280_humidity;BME280_pressure;Samples;Min_cycle;Max_cycle;Signal;HPM_P1;HPM_P2
2022/08/24 00:01:02;;;;;;;1.47;0.93;;;;;;;23.26;40.37;101615.72;4955113;28;97256;-49
2022/08/24 00:03:28;;;;;;;2.37;1.00;;;;;;;23.23;40.61;101605.59;4942056;28;96940;-49
2022/08/24 00:05:54;;;;;;;3.90;1.03;;;;;;;23.18;40.66;101603.72;4946963;28;96978;-48
2022/08/24 00:08:19;;;;;;;1.43;1.00;;;;;;;23.15;40.57;101607.66;4941046;28;96764;-49
2022/08/24 00:10:45;;;;;;;1.53;1.07;;;;;;;23.10;40.86;101606.50;4951666;28;96866;-49
2022/08/24 00:13:11;;;;;;;0.80;0.80;;;;;;;23.08;40.82;101605.56;4945664;28;97172;-49
2022/08/24 00:15:37;;;;;;;0.83;0.83;;;;;;;23.04;40.72;101605.19;4944576;28;97294;-48
2022/08/24 00:18:02;;;;;;;0.80;0.80;;;;;;;22.99;40.80;101604.03;4944628;28;97839;-48
2022/08/24 00:20:28;;;;;;;1.50;0.77;;;;;;;22.95;41.03;101600.09;4943039;28;97123;-51
2022/08/24 00:22:53;;;;;;;1.53;0.80;;;;;;;22.93;41.00;101600.63;4946850;28;96826;-49
2022/08/24 00:25:19;;;;;;;1.23;0.60;;;;;;;22.90;41.12;101586.97;4945890;28;97673;-49
2022/08/24 00:27:45;;;;;;;1.27;1.17;;;;;;;22.86;41.17;101587.34;4945166;28;97546;-49
2022/08/24 00:30:14;;;;;;;0.90;0.80;;;;;;;22.83;41.26;101587.69;4955973;28;97369;-51
2022/08/24 00:32:40;;;;;;;0.90;0.90;;;;;;;22.79;41.47;101590.88;4954919;28;97092;-49
2022/08/24 00:35:07;;;;;;;1.13;0.70;;;;;;;22.78;41.49;101589.34;4957850;28;97521;-49
2022/08/24 00:37:34;;;;;;;1.73;0.70;;;;;;;22.79;41.40;101590.88;4957384;28;100555;-49
2022/08/24 00:39:59;;;;;;;2.83;1.03;;;;;;;22.76;41.57;101574.41;4941901;28;97118;-49
2022/08/24 00:42:25;;;;;;;1.93;0.80;;;;;;;22.77;41.51;101581.50;4946855;28;96800;-49
2022/08/24 00:44:50;;;;;;;3.10;1.10;;;;;;;22.76;41.66;101577.94;4943046;28;96785;-49
2022/08/24 00:47:28;;;;;;;2.60;1.30;;;;;;;22.75;42.21;101575.69;4942622;28;98714;-48
2022/08/24 00:49:59;;;;;;;0.83;0.83;;;;;;;22.73;42.16;101573.47;4943731;28;97705;-49
2022/08/24 00:52:34;;;;;;;1.13;1.03;;;;;;;22.71;42.07;101573.28;4947953;28;97009;-50
2022/08/24 00:55:06;;;;;;;1.83;1.53;;;;;;;22.72;42.19;101577.56;4940124;28;98110;-49
2022/08/24 00:57:37;;;;;;;1.23;1.17;;;;;;;22.68;42.05;101568.75;4948932;28;97882;-50
2022/08/24 01:00:17;;;;;;;1.60;1.00;;;;;;;22.69;42.57;101569.50;4953870;28;97083;-48
2022/08/24 01:02:47;;;;;;;1.07;0.90;;;;;;;22.70;42.02;101571.00;4953022;28;99138;-50
2022/08/24 01:05:14;;;;;;;4.33;1.20;;;;;;;22.70;42.05;101568.19;4953156;28;96974;-50
2022/08/24 01:07:40;;;;;;;0.87;0.80;;;;;;;22.70;42.25;101571.75;4954689;28;97162;-49
2022/08/24 01:10:13;;;;;;;0.93;0.83;;;;;;;22.69;42.49;101573.06;4953885;28;97242;-49
2022/08/24 01:12:44;;;;;;;1.33;1.07;;;;;;;22.68;42.16;101577.16;4955227;28;97107;-49
2022/08/24 01:15:11;;;;;;;2.23;1.50;;;;;;;22.68;42.28;101582.03;4955543;28;102240;-51
2022/08/24 01:20:25;;;;;;;1.40;1.30;;;;;;;22.62;42.23;101581.44;4953242;28;96790;-49
2022/08/24 01:23:04;;;;;;;1.27;1.10;;;;;;;22.60;42.40;101587.63;4951281;28;99200;-48
2022/08/24 01:25:31;;;;;;;1.60;1.00;;;;;;;22.58;42.35;101590.19;4955580;28;100590;-49
2022/08/24 01:28:00;;;;;;;0.97;0.90;;;;;;;22.55;42.52;101594.09;4955471;28;97294;-48
2022/08/24 01:30:27;;;;;;;1.20;1.10;;;;;;;22.53;42.48;101593.16;4950920;28;97216;-50
2022/08/24 01:32:59;;;;;;;1.27;1.17;;;;;;;22.48;42.86;101589.19;4955183;28;97376;-49
2022/08/24 01:35:24;;;;;;;5.20;0.80;;;;;;;22.46;42.58;101596.66;4954506;28;98189;-50
2022/08/24 01:37:50;;;;;;;1.20;1.00;;;;;;;22.43;42.68;101592.94;4955522;28;97291;-49
2022/08/24 01:40:17;;;;;;;1.03;0.93;;;;;;;22.42;42.74;101593.47;4957782;28;96818;-50
2022/08/24 01:42:51;;;;;;;1.00;0.93;;;;;;;22.38;43.25;101594.59;4953816;28;97238;-50
2022/08/24 01:45:19;;;;;;;3.07;1.13;;;;;;;22.35;42.84;101594.94;4955303;28;99921;-49
2022/08/24 01:47:44;;;;;;;1.07;0.97;;;;;;;22.32;43.00;101598.84;4954180;28;97293;-49
2022/08/24 01:50:10;;;;;;;1.20;1.07;;;;;;;22.29;42.98;101600.69;4954673;28;97056;-48
2022/08/24 01:52:38;;;;;;;1.33;1.00;;;;;;;22.29;42.97;101605.56;4952990;28;97243;-49
2022/08/24 01:55:10;;;;;;;1.13;1.07;;;;;;;22.25;43.40;101599.56;4950126;28;97448;-50
2022/08/24 01:57:35;;;;;;;1.10;1.00;;;;;;;22.20;43.12;101598.41;4954577;28;97255;-48
2022/08/24 02:00:03;;;;;;;1.20;0.80;;;;;;;22.16;43.15;101600.81;4954617;28;96719;-49
2022/08/24 02:02:30;;;;;;;2.30;0.90;;;;;;;22.12;43.27;101610.88;4952058;28;96887;-50
2022/08/24 02:04:56;;;;;;;1.13;0.80;;;;;;;22.12;43.27;101608.06;4952125;28;97569;-48
2022/08/24 02:07:22;;;;;;;1.60;1.07;;;;;;;22.07;43.38;101606.91;4959293;28;97365;-49
2022/08/24 02:09:47;;;;;;;0.93;0.70;;;;;;;22.02;43.41;101604.25;4953605;28;96929;-50
2022/08/24 02:12:13;;;;;;;1.43;1.00;;;;;;;21.97;43.47;101611.53;4955206;28;97380;-49
2022/08/24 02:14:39;;;;;;;0.77;0.77;;;;;;;21.94;43.50;101606.25;4949068;28;97209;-49
2022/08/24 02:17:06;;;;;;;1.13;1.00;;;;;;;21.92;43.64;101606.03;4950111;28;97202;-50
2022/08/24 02:19:32;;;;;;;1.10;1.00;;;;;;;21.91;43.71;101607.34;4956549;28;97101;-49
2022/08/24 02:21:58;;;;;;;1.37;0.80;;;;;;;21.90;43.74;101615.00;4952875;28;97033;-49
2022/08/24 02:24:23;;;;;;;2.30;1.10;;;;;;;21.90;43.82;101606.59;4954976;28;98649;-49
2022/08/24 02:26:49;;;;;;;1.27;1.10;;;;;;;21.91;43.94;101607.34;4952249;28;104340;-49
2022/08/24 02:29:15;;;;;;;1.73;1.13;;;;;;;21.94;44.10;101609.03;4955995;28;96800;-48
2022/08/24 02:31:40;;;;;;;2.23;1.20;;;;;;;21.99;44.12;101614.53;4953535;28;97891;-49
2022/08/24 02:34:05;;;;;;;1.30;1.20;;;;;;;21.99;43.96;101611.72;4954105;28;97526;-49
2022/08/24 02:36:31;;;;;;;1.20;1.10;;;;;;;21.90;44.05;101608.66;4952970;28;97113;-49
2022/08/24 02:38:57;;;;;;;1.00;1.00;;;;;;;21.82;44.11;101611.34;4954143;28;98626;-49
2022/08/24 02:41:25;;;;;;;1.30;1.07;;;;;;;21.79;44.16;101615.25;4954843;28;97354;-49
2022/08/24 02:43:53;;;;;;;2.20;1.50;;;;;;;21.80;44.28;101607.63;4950997;28;103945;-49
2022/08/24 02:46:24;;;;;;;2.60;1.30;;;;;;;21.77;44.34;101617.84;4956319;28;97090;-49
2022/08/24 02:48:50;;;;;;;1.00;0.90;;;;;;;21.77;44.40;101617.84;4955528;28;98452;-49
2022/08/24 02:51:24;;;;;;;1.00;1.00;;;;;;;21.79;44.57;101620.09;4959467;28;96853;-49
2022/08/24 02:53:50;;;;;;;1.20;0.93;;;;;;;21.72;44.35;101627.16;4954714;28;97241;-49
2022/08/24 02:56:16;;;;;;;1.27;1.20;;;;;;;21.69;44.53;101624.69;4956426;28;97153;-49
2022/08/24 02:58:42;;;;;;;1.47;1.07;;;;;;;21.65;44.52;101619.41;4958204;28;97049;-49
2022/08/24 03:01:09;;;;;;;2.20;1.03;;;;;;;21.65;44.56;101630.63;4958612;28;96971;-48
2022/08/24 03:03:35;;;;;;;1.00;1.00;;;;;;;21.62;44.39;101629.66;4959353;28;96907;-49
2022/08/24 03:06:00;;;;;;;1.00;1.00;;;;;;;21.57;44.58;101627.00;4958898;28;97743;-49
2022/08/24 03:08:26;;;;;;;1.33;1.00;;;;;;;21.54;44.66;101619.69;4948412;28;96907;-49
2022/08/24 03:10:51;;;;;;;1.37;1.13;;;;;;;21.53;44.84;101632.19;4959023;28;97050;-49
2022/08/24 03:13:17;;;;;;;1.30;1.20;;;;;;;21.53;44.88;101629.41;4959247;28;97315;-49
2022/08/24 03:15:43;;;;;;;1.00;0.87;;;;;;;21.50;44.71;101622.09;4954999;28;97469;-49
2022/08/24 03:18:08;;;;;;;1.00;1.00;;;;;;;21.47;44.80;101618.31;4956684;28;97704;-49
2022/08/24 03:20:34;;;;;;;1.43;1.10;;;;;;;21.43;44.94;101628.34;4955813;28;96802;-51
2022/08/24 03:22:59;;;;;;;1.37;1.27;;;;;;;21.37;44.82;101622.91;4955678;28;97783;-48
2022/08/24 03:25:26;;;;;;;1.57;1.20;;;;;;;21.32;44.89;101632.16;4957702;28;96965;-48
2022/08/24 03:27:52;;;;;;;1.90;1.10;;;;;;;21.30;45.03;101631.19;4953590;28;97091;-49
2022/08/24 03:30:19;;;;;;;1.17;1.07;;;;;;;21.28;45.00;101626.16;4954405;28;97144;-50
2022/08/24 03:32:45;;;;;;;3.73;1.20;;;;;;;21.26;45.19;101625.19;4956405;28;97973;-49
2022/08/24 03:35:12;;;;;;;1.20;1.10;;;;;;;21.24;45.20;101628.53;4958079;28;97879;-48
2022/08/24 03:37:38;;;;;;;1.47;1.00;;;;;;;21.22;45.10;101619.19;4949171;28;97942;-49
2022/08/24 03:40:06;;;;;;;1.67;1.20;;;;;;;21.22;45.18;101633.94;4946087;28;97009;-49
2022/08/24 03:42:32;;;;;;;1.00;1.00;;;;;;;21.23;45.24;101643.81;4943022;28;97406;-49
2022/08/24 03:44:57;;;;;;;1.30;1.20;;;;;;;21.22;45.36;101636.75;4945639;28;98551;-49
2022/08/24 03:47:22;;;;;;;1.10;1.10;;;;;;;21.21;45.22;101638.00;4946908;28;97356;-49
2022/08/24 03:49:48;;;;;;;3.07;1.43;;;;;;;21.18;45.35;101630.72;4945078;28;96714;-49
2022/08/24 03:52:13;;;;;;;4.03;1.30;;;;;;;21.15;45.30;101631.81;4950232;28;97965;-49
2022/08/24 03:54:39;;;;;;;1.77;1.17;;;;;;;21.13;45.42;101631.59;4940349;28;96920;-49
2022/08/24 03:57:04;;;;;;;0.87;0.87;;;;;;;21.12;45.60;101629.34;4950237;28;97438;-49
2022/08/24 03:59:30;;;;;;;1.30;1.03;;;;;;;21.08;45.42;101626.13;4946343;28;97038;-48
2022/08/24 04:01:56;;;;;;;1.47;1.37;;;;;;;21.06;45.59;101623.84;4942082;28;97312;-49
2022/08/24 04:04:22;;;;;;;1.53;1.43;;;;;;;21.05;45.60;101627.19;4946505;28;97114;-49
2022/08/24 04:06:48;;;;;;;1.20;1.10;;;;;;;21.04;45.72;101632.03;4945769;28;96988;-49
2022/08/24 04:09:14;;;;;;;1.60;1.50;;;;;;;21.02;45.78;101629.00;4950300;28;97147;-49
2022/08/24 04:11:42;;;;;;;1.10;1.00;;;;;;;21.00;45.77;101623.22;4945626;28;99467;-49
2022/08/24 04:14:08;;;;;;;1.23;0.90;;;;;;;20.99;45.79;101623.75;4936351;28;97422;-49
2022/08/24 04:16:33;;;;;;;1.83;1.30;;;;;;;20.97;46.03;101629.16;4946092;28;97415;-48
2022/08/24 04:18:59;;;;;;;1.20;1.20;;;;;;;20.95;45.93;101634.53;4943768;28;97203;-51
2022/08/24 04:21:31;;;;;;;2.93;1.30;;;;;;;20.92;46.29;101639.16;4947684;28;99668;-48
2022/08/24 04:23:57;;;;;;;1.60;1.50;;;;;;;20.89;45.88;101640.22;4945929;28;100250;-49
2022/08/24 04:26:25;;;;;;;1.00;1.00;;;;;;;20.87;46.20;101640.03;4943594;28;97040;-49
2022/08/24 04:28:51;;;;;;;2.87;1.07;;;;;;;20.83;46.19;101636.81;4946422;28;97839;-49
2022/08/24 04:31:17;;;;;;;3.03;1.50;;;;;;;20.81;46.31;101637.34;4951937;28;97336;-49
2022/08/24 04:33:48;;;;;;;1.30;1.20;;;;;;;20.79;46.43;101637.13;4957793;28;97128;-49
2022/08/24 04:36:15;;;;;;;1.30;1.20;;;;;;;20.77;46.39;101644.56;4951797;28;97177;-49
2022/08/24 04:38:40;;;;;;;1.43;1.07;;;;;;;20.77;46.46;101647.38;4957678;28;97276;-48
2022/08/24 04:41:08;;;;;;;0.90;0.90;;;;;;;20.76;46.57;101646.59;4953282;28;97313;-49
2022/08/24 04:43:34;;;;;;;1.37;1.27;;;;;;;20.76;46.48;101645.84;4954470;28;97176;-49
2022/08/24 04:46:03;;;;;;;1.93;1.40;;;;;;;20.75;46.70;101636.69;4956946;28;96907;-49
2022/08/24 04:48:29;;;;;;;1.30;1.20;;;;;;;20.75;46.49;101642.28;4956857;28;96873;-49
2022/08/24 04:50:54;;;;;;;1.43;1.30;;;;;;;20.75;46.62;101653.47;4956801;28;97512;-49
2022/08/24 04:53:19;;;;;;;2.43;1.60;;;;;;;20.76;46.79;101659.81;4956135;28;97732;-49
2022/08/24 04:55:48;;;;;;;5.20;1.23;;;;;;;20.79;46.72;101658.75;4953756;28;97166;-49
2022/08/24 04:58:16;;;;;;;1.67;1.57;;;;;;;20.80;46.85;101660.25;4953748;28;97395;-49
2022/08/24 05:00:43;;;;;;;1.30;1.20;;;;;;;20.80;46.83;101658.22;4953737;28;97649;-49
2022/08/24 05:03:10;;;;;;;1.00;1.00;;;;;;;20.80;46.70;101658.22;4954807;28;97015;-48
2022/08/24 05:05:43;;;;;;;1.70;1.60;;;;;;;20.81;47.00;101662.53;4956361;28;96794;-49
2022/08/24 05:08:09;;;;;;;1.10;1.10;;;;;;;20.82;46.72;101654.88;4955977;28;97871;-49
2022/08/24 05:10:38;;;;;;;3.20;1.20;;;;;;;20.84;46.73;101652.28;4955600;28;97452;-50
2022/08/24 05:13:03;;;;;;;1.30;1.20;;;;;;;20.84;46.80;101658.63;4957811;28;97246;-48
2022/08/24 05:15:30;;;;;;;1.40;1.30;;;;;;;20.82;46.77;101655.63;4952934;28;98213;-48
2022/08/24 05:17:55;;;;;;;1.57;1.47;;;;;;;20.83;46.83;101650.78;4955254;28;97265;-48
2022/08/24 05:20:20;;;;;;;1.80;1.27;;;;;;;20.84;47.04;101655.84;4954605;28;97753;-49
2022/08/24 05:22:46;;;;;;;1.50;1.30;;;;;;;20.86;47.01;101656.03;4948668;28;102699;-49
2022/08/24 05:25:11;;;;;;;1.43;1.33;;;;;;;20.88;47.03;101663.91;4952935;28;97123;-49
2022/08/24 05:27:36;;;;;;;1.20;1.10;;;;;;;20.88;46.96;101653.47;4952765;28;96931;-49
2022/08/24 05:30:03;;;;;;;1.40;1.30;;;;;;;20.89;47.21;101654.97;4953912;28;97097;-50
2022/08/24 05:32:28;;;;;;;1.00;0.97;;;;;;;20.93;47.13;101666.59;4954851;28;97207;-49
2022/08/24 05:34:54;;;;;;;3.43;1.40;;;;;;;20.98;47.31;101662.16;4955763;28;96953;-49
2022/08/24 05:37:19;;;;;;;1.53;1.43;;;;;;;21.02;47.31;101679.38;4951794;28;97079;-49
2022/08/24 05:39:44;;;;;;;1.57;1.47;;;;;;;21.06;47.19;101673.47;4953749;28;99390;-50
2022/08/24 05:42:09;;;;;;;1.47;1.40;;;;;;;21.10;47.18;101673.91;4953904;28;104835;-49
2022/08/24 05:44:35;;;;;;;1.50;1.40;;;;;;;21.14;47.27;101680.69;4951400;28;97007;-49
2022/08/24 05:47:01;;;;;;;1.47;1.37;;;;;;;21.18;47.28;101680.34;4955535;28;97161;-49
2022/08/24 05:49:27;;;;;;;1.77;1.20;;;;;;;21.24;47.38;101680.97;4955338;28;97419;-49
2022/08/24 05:51:53;;;;;;;2.43;1.63;;;;;;;21.27;47.28;101691.09;4954095;28;97026;-50
2022/08/24 05:54:19;;;;;;;1.40;1.30;;;;;;;21.32;47.41;101684.59;4953959;28;96992;-49
2022/08/24 05:56:45;;;;;;;1.57;1.07;;;;;;;21.36;47.33;101696.97;4952512;28;97365;-49
2022/08/24 05:59:11;;;;;;;1.53;1.20;;;;;;;21.40;47.50;101691.81;4942186;28;98557;-49
2022/08/24 06:01:37;;;;;;;2.13;1.43;;;;;;;21.46;47.48;101689.63;4957911;28;97373;-49
2022/08/24 06:04:03;;;;;;;3.53;1.40;;;;;;;21.50;47.50;101684.44;4952275;28;97428;-50
2022/08/24 06:06:30;;;;;;;1.53;1.27;;;;;;;21.56;47.53;101696.28;4953204;28;97154;-49
2022/08/24 06:08:58;;;;;;;5.90;1.27;;;;;;;21.62;47.56;101691.28;4951960;28;97507;-49
2022/08/24 06:11:27;;;;;;;1.73;1.27;;;;;;;21.67;47.46;101695.25;4947501;28;97055;-48
2022/08/24 06:13:55;;;;;;;1.03;1.03;;;;;;;21.75;47.34;101695.34;4953501;28;97439;-48
2022/08/24 06:16:22;;;;;;;4.80;1.60;;;;;;;21.82;47.32;101697.47;4956812;28;96962;-48
2022/08/24 06:18:49;;;;;;;3.00;1.37;;;;;;;21.89;47.34;101694.75;4952541;28;97031;-49
2022/08/24 06:21:18;;;;;;;1.30;1.20;;;;;;;21.94;47.36;101693.88;4956249;28;97697;-50
2022/08/24 06:23:45;;;;;;;3.80;1.13;;;;;;;22.02;47.38;101691.88;4955862;28;97121;-48
2022/08/24 06:28:56;;;;;;;1.20;1.10;;;;;;;22.14;47.14;101697.97;4961784;28;100425;-48
2022/08/24 06:31:25;;;;;;;1.77;1.67;;;;;;;22.22;47.14;101696.72;4958425;28;97287;-48
2022/08/24 06:33:51;;;;;;;2.40;1.20;;;;;;;22.30;47.10;101691.91;4953956;28;97212;-48
2022/08/24 06:36:16;;;;;;;0.97;0.90;;;;;;;22.37;47.04;101702.44;4959062;28;96948;-48
2022/08/24 06:38:42;;;;;;;1.33;1.03;;;;;;;22.43;47.05;101702.31;4956833;28;98898;-49
2022/08/24 06:41:08;;;;;;;1.67;1.57;;;;;;;22.50;46.98;101703.66;4956351;28;98350;-48
2022/08/24 06:43:34;;;;;;;1.20;1.10;;;;;;;22.62;46.89;101710.50;4957979;28;97069;-48
2022/08/24 06:45:59;;;;;;;1.40;1.30;;;;;;;22.70;46.94;101705.66;4954993;28;97197;-48
2022/08/24 06:48:25;;;;;;;3.40;1.50;;;;;;;22.77;46.76;101716.97;4960609;28;97350;-49
2022/08/24 06:50:51;;;;;;;1.43;1.20;;;;;;;22.86;46.73;101712.88;4959387;28;97188;-49
2022/08/24 06:53:17;;;;;;;1.10;0.90;;;;;;;22.94;46.66;101719.28;4954091;28;97349;-49
2022/08/24 06:55:53;;;;;;;1.83;1.67;;;;;;;23.02;46.58;101720.09;4954923;28;97169;-48
2022/08/24 06:58:20;;;;;;;1.13;1.13;;;;;;;23.11;46.49;101722.34;4955399;28;100422;-49
2022/08/24 07:00:46;;;;;;;1.47;1.20;;;;;;;23.22;46.39;101722.03;4956207;28;97352;-49
2022/08/24 07:03:12;;;;;;;1.20;1.00;;;;;;;23.32;46.21;101730.69;4954419;28;97268;-48
2022/08/24 07:05:38;;;;;;;1.60;1.50;;;;;;;23.39;46.38;101730.75;4953401;28;97308;-49
2022/08/24 07:08:05;;;;;;;1.53;1.37;;;;;;;23.46;46.14;101732.81;4954895;28;97606;-49
2022/08/24 07:10:31;;;;;;;3.43;1.50;;;;;;;23.55;46.19;101729.47;4960200;28;97483;-49
2022/08/24 07:12:57;;;;;;;3.33;1.77;;;;;;;23.65;46.18;101726.91;4957718;28;97454;-49
2022/08/24 07:15:22;;;;;;;1.33;1.23;;;;;;;23.75;46.23;101731.41;4956000;28;97001;-49
2022/08/24 07:17:48;;;;;;;1.40;1.30;;;;;;;23.86;46.07;101735.91;4955353;28;97930;-49
2022/08/24 07:20:14;;;;;;;1.47;1.27;;;;;;;23.95;45.97;101740.25;4958294;28;96871;-49
2022/08/24 07:22:39;;;;;;;2.10;1.47;;;;;;;24.05;46.13;101738.41;4954453;28;97404;-49
2022/08/24 07:25:05;;;;;;;1.63;1.30;;;;;;;24.17;46.15;101745.94;4955449;28;96952;-49
2022/08/24 07:27:32;;;;;;;2.03;1.30;;;;;;;24.30;45.74;101736.53;4955382;28;99271;-49
2022/08/24 07:29:57;;;;;;;2.20;1.23;;;;;;;24.43;45.80;101750.41;4955914;28;97155;-48
2022/08/24 07:32:23;;;;;;;1.70;1.23;;;;;;;24.55;45.59;101746.66;4955855;28;98247;-49
2022/08/24 07:34:49;;;;;;;1.67;1.20;;;;;;;24.67;45.53;101749.81;4955996;28;97153;-49
2022/08/24 07:37:15;;;;;;;1.27;1.13;;;;;;;24.79;45.35;101750.94;4955247;28;101910;-49
2022/08/24 07:39:40;;;;;;;1.30;1.07;;;;;;;24.90;45.16;101747.72;4952227;28;97198;-49
2022/08/24 07:42:06;;;;;;;1.20;1.10;;;;;;;24.99;45.00;101758.41;4960671;28;97302;-49
2022/08/24 07:44:31;;;;;;;5.53;1.40;;;;;;;25.12;45.11;101760.25;4952513;28;97021;-49
2022/08/24 07:46:57;;;;;;;1.30;1.20;;;;;;;25.23;44.97;101757.78;4951751;28;98446;-49
2022/08/24 07:49:22;;;;;;;4.27;1.33;;;;;;;25.38;44.49;101756.22;4956554;28;97403;-49
2022/08/24 07:51:51;;;;;;;2.60;1.00;;;;;;;25.50;44.52;101757.31;4955860;28;97482;-49
2022/08/24 07:54:17;;;;;;;1.20;1.10;;;;;;;25.64;44.19;101759.28;4956953;28;97371;-50
2022/08/24 07:56:43;;;;;;;2.50;1.20;;;;;;;25.78;44.05;101757.72;4958484;28;97550;-49
2022/08/24 07:59:09;;;;;;;0.90;0.90;;;;;;;25.93;43.84;101760.44;4957138;28;97362;-49
2022/08/24 08:01:37;;;;;;;5.17;1.17;;;;;;;26.04;43.73;101753.59;4951796;28;98391;-49
2022/08/24 08:04:02;;;;;;;2.40;1.30;;;;;;;26.14;43.55;101757.31;4958783;28;97093;-49
2022/08/24 08:06:28;;;;;;;1.37;1.27;;;;;;;26.27;43.46;101759.09;4958601;28;98647;-49
2022/08/24 08:08:53;;;;;;;2.53;1.37;;;;;;;26.41;43.03;101757.47;4954568;28;97176;-50
2022/08/24 08:11:19;;;;;;;1.63;1.23;;;;;;;26.54;42.91;101766.38;4958651;28;97405;-49
2022/08/24 08:13:44;;;;;;;1.77;1.47;;;;;;;26.68;42.90;101759.09;4956835;28;96930;-49
2022/08/24 08:16:09;;;;;;;1.90;1.30;;;;;;;26.80;42.55;101753.72;4958733;28;97794;-50
2022/08/24 08:18:35;;;;;;;1.47;0.90;;;;;;;26.91;42.46;101763.81;4955990;28;98505;-49
2022/08/24 08:24:13;;;;;;;1.40;1.23;;;;;;;27.06;42.19;101757.97;4955986;28;97223;-49
2022/08/24 08:26:34;;;;;;;0.80;0.80;;;;;;;27.38;41.69;101752.13;4956555;28;101460;-51
2022/08/24 08:29:01;;;;;;;2.00;1.10;;;;;;;27.51;41.60;101757.44;4958024;28;104392;-49
2022/08/24 08:31:27;;;;;;;1.20;1.20;;;;;;;27.65;41.15;101752.16;4953649;28;96891;-50
2022/08/24 08:33:52;;;;;;;1.30;1.20;;;;;;;27.77;41.35;101751.03;4958732;28;97195;-49
2022/08/24 08:36:20;;;;;;;2.90;1.43;;;;;;;27.92;41.13;101750.81;4955677;28;96957;-49
2022/08/24 08:38:45;;;;;;;1.87;0.90;;;;;;;28.09;40.79;101752.81;4958481;28;99500;-50
2022/08/24 08:41:16;;;;;;;1.30;1.20;;;;;;;28.22;40.51;101740.38;4956009;28;97006;-49
2022/08/24 08:44:04;;;;;;;2.80;0.93;;;;;;;28.40;40.21;101753.81;4953054;28;96937;-49
2022/08/24 08:47:01;;;;;;;2.50;1.10;;;;;;;28.54;39.84;101746.41;4957092;28;100590;-49
2022/08/24 08:49:32;;;;;;;1.10;0.90;;;;;;;28.73;39.91;101745.72;4955183;28;101823;-49
2022/08/24 08:52:23;;;;;;;1.93;0.80;;;;;;;28.89;39.13;101747.69;4947989;28;97036;-49
2022/08/24 08:55:01;;;;;;;2.70;1.20;;;;;;;29.05;38.92;101731.09;4957361;28;97149;-51
2022/08/24 08:57:56;;;;;;;0.90;0.80;;;;;;;29.16;38.15;101741.84;4959337;28;100437;-48
2022/08/24 09:01:04;;;;;;;1.13;0.80;;;;;;;29.33;38.18;101750.22;4957004;28;100003;-49
2022/08/24 09:03:51;;;;;;;1.23;0.90;;;;;;;29.49;37.36;101737.16;4930551;28;97209;-49
2022/08/24 09:06:55;;;;;;;1.07;0.97;;;;;;;29.62;37.30;101742.38;4968883;27;96779;-48
2022/08/24 09:09:45;;;;;;;0.83;0.83;;;;;;;29.77;36.79;101735.66;4971792;28;97397;-48
2022/08/24 09:12:15;;;;;;;1.00;0.77;;;;;;;29.93;36.68;101745.28;4966765;28;100777;-48
2022/08/24 09:14:40;;;;;;;1.27;0.80;;;;;;;30.12;37.26;101735.94;4969851;28;101718;-48
2022/08/24 09:17:33;;;;;;;1.67;1.07;;;;;;;30.27;35.94;101732.72;4963976;28;97091;-49
2022/08/24 09:20:21;;;;;;;1.37;1.07;;;;;;;30.43;34.82;101736.66;4962683;28;101197;-49
2022/08/24 09:23:14;;;;;;;0.90;0.80;;;;;;;30.58;35.17;101732.69;4969819;28;102238;-50
2022/08/24 09:26:09;;;;;;;1.83;0.80;;;;;;;30.69;35.43;101741.25;4965182;28;100932;-48
2022/08/24 09:28:46;;;;;;;0.70;0.70;;;;;;;30.80;34.74;101737.75;4963533;28;96961;-50
2022/08/24 09:31:12;;;;;;;1.13;0.90;;;;;;;30.91;35.37;101751.28;4969381;28;97345;-49
2022/08/24 09:33:49;;;;;;;1.27;0.90;;;;;;;30.99;34.41;101742.56;4961603;28;97579;-49
2022/08/24 09:36:37;;;;;;;1.10;1.00;;;;;;;31.07;33.94;101740.25;4962004;28;97571;-49
2022/08/24 09:39:17;;;;;;;0.97;0.87;;;;;;;31.18;34.04;101733.09;4962092;28;96827;-50
2022/08/24 09:42:07;;;;;;;0.90;0.90;;;;;;;31.29;33.67;101738.09;4966446;28;96902;-49
2022/08/24 09:45:09;;;;;;;0.80;0.60;;;;;;;31.40;33.08;101731.69;4964497;28;97056;-49
2022/08/24 09:47:56;;;;;;;0.70;0.60;;;;;;;31.49;33.40;101731.63;4965234;28;101561;-48
2022/08/24 09:50:40;;;;;;;1.10;1.00;;;;;;;31.62;33.17;101727.44;4966950;28;97177;-50
2022/08/24 09:53:38;;;;;;;0.60;0.60;;;;;;;31.74;33.31;101728.16;4968900;28;97224;-48
2022/08/24 09:56:28;;;;;;;0.70;0.60;;;;;;;31.84;32.68;101728.81;4961465;28;100849;-50
2022/08/24 09:59:06;;;;;;;0.93;0.70;;;;;;;31.89;32.23;101727.69;4964228;28;102764;-48
2022/08/24 10:01:46;;;;;;;1.13;0.80;;;;;;;31.95;32.32;101733.03;4963680;28;96890;-49
2022/08/24 10:04:31;;;;;;;2.87;1.10;;;;;;;32.01;31.66;101734.16;4952231;28;99255;-48
2022/08/24 10:07:09;;;;;;;1.10;0.77;;;;;;;31.99;31.54;101734.03;4966623;28;101878;-52
2022/08/24 10:10:01;;;;;;;0.93;0.70;;;;;;;32.00;31.94;101729.81;4961911;28;101589;-48
2022/08/24 10:12:46;;;;;;;1.47;0.90;;;;;;;32.02;31.76;101727.09;4968781;28;97635;-49
2022/08/24 10:15:31;;;;;;;2.60;0.73;;;;;;;32.09;31.12;101731.78;4963113;28;97345;-49
2022/08/24 10:18:17;;;;;;;1.40;0.93;;;;;;;32.11;31.31;101722.66;4943352;28;97157;-49
2022/08/24 10:20:45;;;;;;;1.13;0.83;;;;;;;32.13;31.31;101711.38;4948215;28;100254;-52
2022/08/24 10:23:35;;;;;;;1.20;0.80;;;;;;;32.13;30.77;101725.63;4954184;28;97375;-50
2022/08/24 10:26:49;;;;;;;0.80;0.60;;;;;;;32.22;30.06;101708.38;4953814;28;97529;-49
2022/08/24 10:29:27;;;;;;;1.00;0.83;;;;;;;32.25;30.96;101707.13;4953106;28;101691;-49
2022/08/24 10:32:21;;;;;;;0.77;0.77;;;;;;;32.34;30.91;101708.34;4951427;28;101548;-50
2022/08/24 10:35:14;;;;;;;1.27;0.70;;;;;;;32.40;30.90;101703.00;4947400;28;96816;-49
2022/08/24 10:39:39;;;;;;;1.30;1.10;;;;;;;32.51;31.43;101699.41;4952898;28;97154;-49
2022/08/24 10:40:49;;;;;;;0.80;0.70;;;;;;;32.61;30.31;101705.72;4952018;28;102988;-50
2022/08/24 10:43:51;;;;;;;1.17;0.90;;;;;;;32.67;30.40;101697.50;4962229;28;96958;-48
2022/08/24 10:46:17;;;;;;;1.43;1.00;;;;;;;32.71;30.47;101697.00;4951309;28;97044;-50
2022/08/24 10:49:20;;;;;;;0.97;0.80;;;;;;;32.70;29.27;101693.41;4951239;28;96931;-49
2022/08/24 10:51:46;;;;;;;2.23;0.90;;;;;;;32.75;30.01;101700.81;4946837;28;102251;-49
2022/08/24 10:54:12;;;;;;;1.10;0.70;;;;;;;32.82;29.37;101699.06;4956379;28;99848;-53
2022/08/24 10:56:48;;;;;;;1.10;1.00;;;;;;;32.82;28.49;101696.97;4950416;28;96944;-51
2022/08/24 10:59:37;;;;;;;0.80;0.67;;;;;;;32.88;27.53;101693.69;4950353;28;97182;-50
2022/08/24 11:02:27;;;;;;;2.20;0.80;;;;;;;32.94;29.08;101694.06;4944541;28;101655;-48
2022/08/24 11:05:01;;;;;;;1.10;0.67;;;;;;;33.05;29.05;101702.56;4950926;28;100874;-50
2022/08/24 11:07:28;;;;;;;1.17;0.80;;;;;;;33.19;29.29;101705.47;4950793;28;97189;-48
2022/08/24 11:09:56;;;;;;;0.70;0.60;;;;;;;33.31;29.03;101699.72;4953037;28;96594;-50
2022/08/24 11:12:38;;;;;;;1.20;0.70;;;;;;;33.40;28.58;101699.50;4940709;28;101590;-49
2022/08/24 11:15:19;;;;;;;0.87;0.80;;;;;;;33.51;28.10;101695.84;4950400;28;100230;-49
2022/08/24 11:18:00;;;;;;;1.07;0.67;;;;;;;33.59;27.63;101693.47;4949437;28;97373;-52
2022/08/24 11:20:29;;;;;;;0.80;0.70;;;;;;;33.72;28.50;101698.44;4948146;28;96907;-49
2022/08/24 11:23:27;;;;;;;0.80;0.80;;;;;;;33.73;27.27;101690.59;4949544;28;97060;-50
2022/08/24 11:26:01;;;;;;;0.70;0.60;;;;;;;33.79;27.42;101696.66;4950088;28;99922;-49
2022/08/24 11:28:39;;;;;;;1.20;0.70;;;;;;;33.77;27.42;101688.69;4953989;28;96865;-48
2022/08/24 11:31:10;;;;;;;1.00;0.80;;;;;;;33.84;27.58;101698.31;4959491;28;96941;-49
2022/08/24 11:33:56;;;;;;;2.30;0.70;;;;;;;33.91;25.67;101685.84;4956705;28;97434;-50
2022/08/24 11:36:27;;;;;;;0.70;0.70;;;;;;;33.93;27.11;101695.28;4942754;28;101461;-49
2022/08/24 11:39:14;;;;;;;0.90;0.90;;;;;;;34.11;26.75;101678.38;4940794;28;97161;-52
2022/08/24 11:42:06;;;;;;;0.87;0.73;;;;;;;34.28;26.75;101697.81;4948045;28;97089;-49
2022/08/24 11:44:45;;;;;;;1.73;0.80;;;;;;;34.33;27.11;101693.03;4957117;28;103134;-51
2022/08/24 11:47:44;;;;;;;1.10;1.00;;;;;;;34.32;26.50;101683.72;4948199;28;97689;-52
2022/08/24 11:50:25;;;;;;;0.80;0.70;;;;;;;34.54;26.44;101684.13;4956672;28;96912;-48